sensor_id;sensor_type;location;lat;lon;timestamp;pressure;altitude;pressure_sealevel;temperature;humidity
60355;BME280;46198;51.464;-0.066;2023-05-20T00:02:28;102668.88;;;11.33;100.00
60355;BME280;46198;51.464;-0.066;2023-05-20T00:04:57;102671.94;;;11.30;100.00
60355;BME280;46198;51.464;-0.066;2023-05-20T00:07:25;102667.19;;;11.32;100.00
60355;BME280;46198;51.464;-0.066;2023-05-20T00:09:54;102671.28;;;11.28;100.00
60355;BME280;46198;51.464;-0.066;2023-05-20T00:12:22;102667.75;;;11.19;100.00
60355;BME280;46198;51.464;-0.066;2023-05-20T00:14:51;102666.59;;;11.14;100.00
60355;BME280;46198;51.464;-0.066;2023-05-20T00:17:22;102666.41;;;11.15;100.00
60355;BME280;46198;51.464;-0.066;2023-05-20T00:19:51;102660.84;;;11.08;100.00
60355;BME280;46198;51.464;-0.066;2023-05-20T00:22:20;102659.19;;;11.07;100.00
60355;BME280;46198;51.464;-0.066;2023-05-20T00:24:49;102666.47;;;11.07;100.00
60355;BME280;46198;51.464;-0.066;2023-05-20T00:27:17;102667.38;;;10.99;100.00
60355;BME280;46198;51.464;-0.066;2023-05-20T00:29:45;102657.81;;;11.03;100.00
60355;BME280;46198;51.464;-0.066;2023-05-20T00:32:14;102660.91;;;11.00;100.00
60355;BME280;46198;51.464;-0.066;2023-05-20T00:34:43;102661.25;;;10.97;100.00
60355;BME280;46198;51.464;-0.066;2023-05-20T00:37:11;102662.97;;;10.90;100.00
60355;BME280;46198;51.464;-0.066;2023-05-20T00:39:39;102659.91;;;10.93;100.00
60355;BME280;46198;51.464;-0.066;2023-05-20T00:42:07;102659.25;;;10.91;100.00
60355;BME280;46198;51.464;-0.066;2023-05-20T00:44:36;102657.19;;;10.93;100.00
60355;BME280;46198;51.464;-0.066;2023-05-20T00:47:05;102654.34;;;10.86;100.00
60355;BME280;46198;51.464;-0.066;2023-05-20T00:49:34;102649.91;;;10.85;100.00
60355;BME280;46198;51.464;-0.066;2023-05-20T00:52:03;102654.88;;;10.82;100.00
60355;BME280;46198;51.464;-0.066;2023-05-20T00:54:32;102651.47;;;10.80;100.00
60355;BME280;46198;51.464;-0.066;2023-05-20T00:57:01;102657.59;;;10.82;100.00
60355;BME280;46198;51.464;-0.066;2023-05-20T00:59:30;102655.25;;;10.71;100.00
60355;BME280;46198;51.464;-0.066;2023-05-20T01:01:58;102651.50;;;10.72;100.00
60355;BME280;46198;51.464;-0.066;2023-05-20T01:04:27;102646.28;;;10.70;100.00
60355;BME280;46198;51.464;-0.066;2023-05-20T01:06:58;102650.22;;;10.59;100.00
60355;BME280;46198;51.464;-0.066;2023-05-20T01:09:28;102635.44;;;10.62;100.00
60355;BME280;46198;51.464;-0.066;2023-05-20T01:12:02;102636.44;;;10.61;100.00
60355;BME280;46198;51.464;-0.066;2023-05-20T01:14:36;102640.56;;;10.49;100.00
60355;BME280;46198;51.464;-0.066;2023-05-20T01:17:09;102638.34;;;10.52;100.00
60355;BME280;46198;51.464;-0.066;2023-05-20T01:19:40;102637.38;;;10.45;100.00
60355;BME280;46198;51.464;-0.066;2023-05-20T01:22:12;102630.91;;;10.46;100.00
60355;BME280;46198;51.464;-0.066;2023-05-20T01:24:45;102633.63;;;10.46;100.00
60355;BME280;46198;51.464;-0.066;2023-05-20T01:27:15;102628.53;;;10.43;100.00
60355;BME280;46198;51.464;-0.066;2023-05-20T01:29:47;102629.38;;;10.43;100.00
60355;BME280;46198;51.464;-0.066;2023-05-20T01:32:19;102631.94;;;10.45;100.00
60355;BME280;46198;51.464;-0.066;2023-05-20T01:34:49;102631.94;;;10.45;100.00
60355;BME280;46198;51.464;-0.066;2023-05-20T01:37:18;102629.53;;;10.42;100.00
60355;BME280;46198;51.464;-0.066;2023-05-20T01:39:49;102622.59;;;10.39;100.00
60355;BME280;46198;51.464;-0.066;2023-05-20T01:42:19;102620.78;;;10.32;100.00
60355;BME280;46198;51.464;-0.066;2023-05-20T01:44:48;102623.50;;;10.32;100.00
60355;BME280;46198;51.464;-0.066;2023-05-20T01:47:16;102627.22;;;10.31;100.00
60355;BME280;46198;51.464;-0.066;2023-05-20T01:49:44;102626.88;;;10.17;100.00
60355;BME280;46198;51.464;-0.066;2023-05-20T01:52:13;102617.19;;;10.23;100.00
60355;BME280;46198;51.464;-0.066;2023-05-20T01:54:42;102620.09;;;10.21;100.00
60355;BME280;46198;51.464;-0.066;2023-05-20T01:57:19;102614.34;;;10.16;100.00
60355;BME280;46198;51.464;-0.066;2023-05-20T01:59:49;102614.50;;;10.15;100.00
60355;BME280;46198;51.464;-0.066;2023-05-20T02:02:17;102615.38;;;10.15;100.00
60355;BME280;46198;51.464;-0.066;2023-05-20T02:04:47;102620.28;;;10.12;100.00
60355;BME280;46198;51.464;-0.066;2023-05-20T02:07:16;102619.44;;;10.11;100.00
60355;BME280;46198;51.464;-0.066;2023-05-20T02:09:46;102621.81;;;10.06;100.00
60355;BME280;46198;51.464;-0.066;2023-05-20T02:12:14;102627.25;;;10.06;100.00
60355;BME280;46198;51.464;-0.066;2023-05-20T02:14:46;102631.34;;;10.02;100.00
60355;BME280;46198;51.464;-0.066;2023-05-20T02:17:16;102623.34;;;10.01;100.00
60355;BME280;46198;51.464;-0.066;2023-05-20T02:19:44;102621.50;;;9.93;100.00
60355;BME280;46198;51.464;-0.066;2023-05-20T02:22:13;102625.22;;;9.92;100.00
60355;BME280;46198;51.464;-0.066;2023-05-20T02:24:42;102622.53;;;9.84;100.00
60355;BME280;46198;51.464;-0.066;2023-05-20T02:27:10;102623.22;;;9.86;100.00
60355;BME280;46198;51.464;-0.066;2023-05-20T02:29:39;102609.66;;;9.86;100.00
60355;BME280;46198;51.464;-0.066;2023-05-20T02:32:08;102614.41;;;9.84;100.00
60355;BME280;46198;51.464;-0.066;2023-05-20T02:34:37;102612.03;;;9.81;100.00
60355;BME280;46198;51.464;-0.066;2023-05-20T02:37:05;102609.31;;;9.81;100.00
60355;BME280;46198;51.464;-0.066;2023-05-20T02:39:34;102603.19;;;9.79;100.00
60355;BME280;46198;51.464;-0.066;2023-05-20T02:42:02;102598.13;;;9.75;100.00
60355;BME280;46198;51.464;-0.066;2023-05-20T02:44:30;102601.53;;;9.69;100.00
60355;BME280;46198;51.464;-0.066;2023-05-20T02:46:59;102599.66;;;9.70;100.00
60355;BME280;46198;51.464;-0.066;2023-05-20T02:49:28;102599.16;;;9.66;100.00
60355;BME280;46198;51.464;-0.066;2023-05-20T02:51:57;102593.22;;;9.63;100.00
60355;BME280;46198;51.464;-0.066;2023-05-20T02:54:25;102598.13;;;9.67;100.00
60355;BME280;46198;51.464;-0.066;2023-05-20T02:56:53;102595.91;;;9.63;100.00
60355;BME280;46198;51.464;-0.066;2023-05-20T02:59:21;102599.81;;;9.60;100.00
60355;BME280;46198;51.464;-0.066;2023-05-20T03:01:50;102596.44;;;9.58;100.00
60355;BME280;46198;51.464;-0.066;2023-05-20T03:04:18;102604.75;;;9.57;100.00
60355;BME280;46198;51.464;-0.066;2023-05-20T03:06:49;102605.94;;;9.54;100.00
60355;BME280;46198;51.464;-0.066;2023-05-20T03:09:18;102595.09;;;9.46;100.00
60355;BME280;46198;51.464;-0.066;2023-05-20T03:11:47;102598.13;;;9.43;100.00
60355;BME280;46198;51.464;-0.066;2023-05-20T03:14:15;102602.19;;;9.47;100.00
60355;BME280;46198;51.464;-0.066;2023-05-20T03:16:43;102600.84;;;9.43;100.00
60355;BME280;46198;51.464;-0.066;2023-05-20T03:19:12;102597.78;;;9.46;100.00
60355;BME280;46198;51.464;-0.066;2023-05-20T03:21:40;102603.56;;;9.43;100.00
60355;BME280;46198;51.464;-0.066;2023-05-20T03:24:11;102600.66;;;9.36;100.00
60355;BME280;46198;51.464;-0.066;2023-05-20T03:26:39;102601.69;;;9.35;100.00
60355;BME280;46198;51.464;-0.066;2023-05-20T03:29:09;102602.38;;;9.29;100.00
60355;BME280;46198;51.464;-0.066;2023-05-20T03:31:37;102600.66;;;9.28;100.00
60355;BME280;46198;51.464;-0.066;2023-05-20T03:34:06;102612.19;;;9.30;100.00
60355;BME280;46198;51.464;-0.066;2023-05-20T03:36:35;102609.47;;;9.30;100.00
60355;BME280;46198;51.464;-0.066;2023-05-20T03:39:03;102610.84;;;9.26;100.00
60355;BME280;46198;51.464;-0.066;2023-05-20T03:41:33;102597.59;;;9.15;100.00
60355;BME280;46198;51.464;-0.066;2023-05-20T03:44:02;102605.56;;;9.24;100.00
60355;BME280;46198;51.464;-0.066;2023-05-20T03:46:30;102602.50;;;9.19;100.00
60355;BME280;46198;51.464;-0.066;2023-05-20T03:49:00;102606.25;;;9.18;100.00
60355;BME280;46198;51.464;-0.066;2023-05-20T03:51:29;102614.03;;;9.21;100.00
60355;BME280;46198;51.464;-0.066;2023-05-20T03:54:04;102609.63;;;9.12;100.00
60355;BME280;46198;51.464;-0.066;2023-05-20T03:56:34;102609.66;;;9.20;100.00
60355;BME280;46198;51.464;-0.066;2023-05-20T03:59:03;102606.25;;;9.18;100.00
60355;BME280;46198;51.464;-0.066;2023-05-20T04:01:31;102608.44;;;9.15;100.00
60355;BME280;46198;51.464;-0.066;2023-05-20T04:04:00;102609.97;;;9.17;100.00
60355;BME280;46198;51.464;-0.066;2023-05-20T04:06:29;102609.81;;;9.19;100.00
60355;BME280;46198;51.464;-0.066;2023-05-20T04:08:59;102611.34;;;9.21;100.00
60355;BME280;46198;51.464;-0.066;2023-05-20T04:11:27;102603.34;;;9.20;100.00
60355;BME280;46198;51.464;-0.066;2023-05-20T04:13:57;102615.56;;;9.24;100.00
60355;BME280;46198;51.464;-0.066;2023-05-20T04:16:26;102606.59;;;9.23;100.00
60355;BME280;46198;51.464;-0.066;2023-05-20T04:18:56;102598.97;;;9.27;100.00
60355;BME280;46198;51.464;-0.066;2023-05-20T04:21:25;102595.91;;;9.30;100.00
60355;BME280;46198;51.464;-0.066;2023-05-20T04:23:53;102595.06;;;9.29;100.00
60355;BME280;46198;51.464;-0.066;2023-05-20T04:26:22;102600.34;;;9.31;100.00
60355;BME280;46198;51.464;-0.066;2023-05-20T04:28:51;102600.16;;;9.24;100.00
60355;BME280;46198;51.464;-0.066;2023-05-20T04:31:21;102600.00;;;9.34;100.00
60355;BME280;46198;51.464;-0.066;2023-05-20T04:33:52;102600.84;;;9.35;100.00
60355;BME280;46198;51.464;-0.066;2023-05-20T04:36:22;102599.66;;;9.37;100.00
60355;BME280;46198;51.464;-0.066;2023-05-20T04:38:55;102599.81;;;9.44;100.00
60355;BME280;46198;51.464;-0.066;2023-05-20T04:41:23;102605.25;;;9.44;100.00
60355;BME280;46198;51.464;-0.066;2023-05-20T04:43:51;102608.78;;;9.44;100.00
60355;BME280;46198;51.464;-0.066;2023-05-20T04:46:22;102604.56;;;9.33;100.00
60355;BME280;46198;51.464;-0.066;2023-05-20T04:48:50;102605.25;;;9.36;100.00
60355;BME280;46198;51.464;-0.066;2023-05-20T04:51:18;102603.22;;;9.46;100.00
60355;BME280;46198;51.464;-0.066;2023-05-20T04:53:47;102601.53;;;9.53;100.00
60355;BME280;46198;51.464;-0.066;2023-05-20T04:56:16;102609.66;;;9.53;100.00
60355;BME280;46198;51.464;-0.066;2023-05-20T04:58:44;102602.03;;;9.57;100.00
60355;BME280;46198;51.464;-0.066;2023-05-20T05:01:13;102607.13;;;9.60;100.00
60355;BME280;46198;51.464;-0.066;2023-05-20T05:03:43;102595.75;;;9.64;100.00
60355;BME280;46198;51.464;-0.066;2023-05-20T05:06:12;102605.25;;;9.60;100.00
60355;BME280;46198;51.464;-0.066;2023-05-20T05:08:40;102587.63;;;9.64;100.00
60355;BME280;46198;51.464;-0.066;2023-05-20T05:11:09;102597.94;;;9.69;100.00
60355;BME280;46198;51.464;-0.066;2023-05-20T05:13:38;102602.19;;;9.71;100.00
60355;BME280;46198;51.464;-0.066;2023-05-20T05:16:06;102591.34;;;9.71;100.00
60355;BME280;46198;51.464;-0.066;2023-05-20T05:18:35;102589.66;;;9.70;100.00
60355;BME280;46198;51.464;-0.066;2023-05-20T05:21:05;102591.34;;;9.71;100.00
60355;BME280;46198;51.464;-0.066;2023-05-20T05:23:34;102583.53;;;9.76;100.00
60355;BME280;46198;51.464;-0.066;2023-05-20T05:26:03;102589.16;;;9.75;100.00
60355;BME280;46198;51.464;-0.066;2023-05-20T05:28:31;102586.78;;;9.72;100.00
60355;BME280;46198;51.464;-0.066;2023-05-20T05:30:59;102591.50;;;9.78;100.00
60355;BME280;46198;51.464;-0.066;2023-05-20T05:33:29;102587.28;;;9.75;100.00
60355;BME280;46198;51.464;-0.066;2023-05-20T05:35:57;102587.25;;;9.84;100.00
60355;BME280;46198;51.464;-0.066;2023-05-20T05:38:28;102592.69;;;9.84;100.00
60355;BME280;46198;51.464;-0.066;2023-05-20T05:40:56;102593.88;;;9.89;100.00
60355;BME280;46198;51.464;-0.066;2023-05-20T05:43:25;102596.41;;;9.91;100.00
60355;BME280;46198;51.464;-0.066;2023-05-20T05:45:53;102590.66;;;9.94;100.00
60355;BME280;46198;51.464;-0.066;2023-05-20T05:48:21;102597.41;;;9.98;100.00
60355;BME280;46198;51.464;-0.066;2023-05-20T05:50:50;102590.28;;;9.97;100.00
60355;BME280;46198;51.464;-0.066;2023-05-20T05:53:20;102586.56;;;9.98;100.00
60355;BME280;46198;51.464;-0.066;2023-05-20T05:55:50;102581.47;;;9.95;100.00
60355;BME280;46198;51.464;-0.066;2023-05-20T05:58:18;102588.91;;;10.01;100.00
60355;BME280;46198;51.464;-0.066;2023-05-20T06:00:50;102597.03;;;10.09;100.00
60355;BME280;46198;51.464;-0.066;2023-05-20T06:03:19;102589.75;;;10.10;100.00
60355;BME280;46198;51.464;-0.066;2023-05-20T06:05:47;102589.75;;;10.10;100.00
60355;BME280;46198;51.464;-0.066;2023-05-20T06:08:19;102591.25;;;10.12;100.00
60355;BME280;46198;51.464;-0.066;2023-05-20T06:10:49;102587.34;;;10.15;100.00
60355;BME280;46198;51.464;-0.066;2023-05-20T06:13:18;102589.19;;;10.23;100.00
60355;BME280;46198;51.464;-0.066;2023-05-20T06:15:48;102585.47;;;10.24;100.00
60355;BME280;46198;51.464;-0.066;2023-05-20T06:18:19;102579.38;;;10.30;100.00
60355;BME280;46198;51.464;-0.066;2023-05-20T06:20:53;102578.34;;;10.31;100.00
60355;BME280;46198;51.464;-0.066;2023-05-20T06:23:23;102585.97;;;10.35;100.00
60355;BME280;46198;51.464;-0.066;2023-05-20T06:25:58;102583.09;;;10.37;100.00
60355;BME280;46198;51.464;-0.066;2023-05-20T06:28:28;102580.88;;;10.40;100.00
60355;BME280;46198;51.464;-0.066;2023-05-20T06:30:57;102583.75;;;10.39;100.00
60355;BME280;46198;51.464;-0.066;2023-05-20T06:33:27;102576.59;;;10.46;100.00
60355;BME280;46198;51.464;-0.066;2023-05-20T06:35:59;102578.59;;;10.52;100.00
60355;BME280;46198;51.464;-0.066;2023-05-20T06:38:29;102569.09;;;10.56;100.00
60355;BME280;46198;51.464;-0.066;2023-05-20T06:40:59;102573.13;;;10.60;100.00
60355;BME280;46198;51.464;-0.066;2023-05-20T06:43:29;102566.72;;;10.53;100.00
60355;BME280;46198;51.464;-0.066;2023-05-20T06:46:04;102563.47;;;10.58;100.00
60355;BME280;46198;51.464;-0.066;2023-05-20T06:48:35;102568.16;;;10.72;100.00
60355;BME280;46198;51.464;-0.066;2023-05-20T06:51:06;102565.91;;;10.76;100.00
60355;BME280;46198;51.464;-0.066;2023-05-20T06:53:36;102559.09;;;10.80;100.00
60355;BME280;46198;51.464;-0.066;2023-05-20T06:56:06;102562.47;;;10.82;100.00
60355;BME280;46198;51.464;-0.066;2023-05-20T06:58:34;102559.72;;;10.90;100.00
60355;BME280;46198;51.464;-0.066;2023-05-20T07:01:03;102559.66;;;10.98;100.00
60355;BME280;46198;51.464;-0.066;2023-05-20T07:03:31;102560.19;;;10.94;100.00
60355;BME280;46198;51.464;-0.066;2023-05-20T07:06:00;102559.59;;;11.06;100.00
60355;BME280;46198;51.464;-0.066;2023-05-20T07:08:29;102556.44;;;11.18;100.00
60355;BME280;46198;51.464;-0.066;2023-05-20T07:10:57;102554.78;;;11.17;100.00
60355;BME280;46198;51.464;-0.066;2023-05-20T07:13:28;102554.03;;;11.23;100.00
60355;BME280;46198;51.464;-0.066;2023-05-20T07:15:57;102549.94;;;11.27;100.00
60355;BME280;46198;51.464;-0.066;2023-05-20T07:18:26;102555.84;;;11.30;100.00
60355;BME280;46198;51.464;-0.066;2023-05-20T07:20:56;102563.53;;;11.27;100.00
60355;BME280;46198;51.464;-0.066;2023-05-20T07:23:43;102558.41;;;11.32;100.00
60355;BME280;46198;51.464;-0.066;2023-05-20T07:26:11;102558.75;;;11.29;100.00
60355;BME280;46198;51.464;-0.066;2023-05-20T07:28:41;102549.66;;;11.37;100.00
60355;BME280;46198;51.464;-0.066;2023-05-20T07:31:10;102554.50;;;11.49;100.00
60355;BME280;46198;51.464;-0.066;2023-05-20T07:33:42;102541.19;;;11.54;100.00
60355;BME280;46198;51.464;-0.066;2023-05-20T07:36:11;102541.28;;;11.61;100.00
60355;BME280;46198;51.464;-0.066;2023-05-20T07:38:41;102540.50;;;11.75;100.00
60355;BME280;46198;51.464;-0.066;2023-05-20T07:41:28;102545.94;;;11.75;100.00
60355;BME280;46198;51.464;-0.066;2023-05-20T07:43:58;102546.00;;;11.82;100.00
60355;BME280;46198;51.464;-0.066;2023-05-20T07:46:26;102539.53;;;11.83;100.00
60355;BME280;46198;51.464;-0.066;2023-05-20T07:48:55;102545.22;;;11.96;100.00
60355;BME280;46198;51.464;-0.066;2023-05-20T07:51:23;102551.13;;;12.15;100.00
60355;BME280;46198;51.464;-0.066;2023-05-20T07:53:52;102544.56;;;12.24;100.00
60355;BME280;46198;51.464;-0.066;2023-05-20T07:56:20;102545.38;;;12.54;100.00
60355;BME280;46198;51.464;-0.066;2023-05-20T07:58:51;102536.06;;;12.85;100.00
60355;BME280;46198;51.464;-0.066;2023-05-20T08:01:23;102541.22;;;12.95;100.00
60355;BME280;46198;51.464;-0.066;2023-05-20T08:03:52;102532.81;;;13.18;100.00
60355;BME280;46198;51.464;-0.066;2023-05-20T08:06:22;102523.66;;;13.47;100.00
60355;BME280;46198;51.464;-0.066;2023-05-20T08:08:54;102522.81;;;13.74;100.00
60355;BME280;46198;51.464;-0.066;2023-05-20T08:11:28;102514.47;;;13.83;100.00
60355;BME280;46198;51.464;-0.066;2023-05-20T08:13:57;102512.69;;;13.68;100.00
60355;BME280;46198;51.464;-0.066;2023-05-20T08:16:29;102512.06;;;14.01;100.00
60355;BME280;46198;51.464;-0.066;2023-05-20T08:18:58;102509.66;;;14.19;100.00
60355;BME280;46198;51.464;-0.066;2023-05-20T08:21:26;102505.16;;;14.53;100.00
60355;BME280;46198;51.464;-0.066;2023-05-20T08:23:55;102505.44;;;14.72;100.00
60355;BME280;46198;51.464;-0.066;2023-05-20T08:26:23;102501.25;;;14.89;100.00
60355;BME280;46198;51.464;-0.066;2023-05-20T08:28:53;102496.88;;;15.01;100.00
60355;BME280;46198;51.464;-0.066;2023-05-20T08:31:22;102496.88;;;15.15;100.00
60355;BME280;46198;51.464;-0.066;2023-05-20T08:33:53;102488.84;;;15.33;100.00
60355;BME280;46198;51.464;-0.066;2023-05-20T08:36:22;102498.13;;;15.59;100.00
60355;BME280;46198;51.464;-0.066;2023-05-20T08:38:53;102492.22;;;15.68;100.00
60355;BME280;46198;51.464;-0.066;2023-05-20T08:41:22;102491.56;;;15.86;100.00
60355;BME280;46198;51.464;-0.066;2023-05-20T08:43:52;102495.34;;;15.92;100.00
60355;BME280;46198;51.464;-0.066;2023-05-20T08:46:21;102491.78;;;15.78;100.00
60355;BME280;46198;51.464;-0.066;2023-05-20T08:48:51;102484.53;;;16.10;100.00
60355;BME280;46198;51.464;-0.066;2023-05-20T08:51:22;102487.09;;;16.50;100.00
60355;BME280;46198;51.464;-0.066;2023-05-20T08:53:51;102482.19;;;16.59;100.00
60355;BME280;46198;51.464;-0.066;2023-05-20T08:56:19;102486.03;;;16.51;100.00
60355;BME280;46198;51.464;-0.066;2023-05-20T08:58:49;102479.97;;;16.74;100.00
60355;BME280;46198;51.464;-0.066;2023-05-20T09:01:17;102480.38;;;17.10;100.00
60355;BME280;46198;51.464;-0.066;2023-05-20T09:03:46;102468.81;;;16.69;100.00
60355;BME280;46198;51.464;-0.066;2023-05-20T09:06:15;102480.28;;;16.98;100.00
60355;BME280;46198;51.464;-0.066;2023-05-20T09:08:48;102470.75;;;17.00;100.00
60355;BME280;46198;51.464;-0.066;2023-05-20T09:11:18;102468.28;;;16.92;100.00
60355;BME280;46198;51.464;-0.066;2023-05-20T09:13:49;102467.28;;;16.87;100.00
60355;BME280;46198;51.464;-0.066;2023-05-20T09:16:17;102465.00;;;17.09;100.00
60355;BME280;46198;51.464;-0.066;2023-05-20T09:18:46;102463.38;;;17.01;100.00
60355;BME280;46198;51.464;-0.066;2023-05-20T09:21:14;102455.41;;;16.93;100.00
60355;BME280;46198;51.464;-0.066;2023-05-20T09:23:46;102455.78;;;16.96;100.00
60355;BME280;46198;51.464;-0.066;2023-05-20T09:26:18;102446.19;;;17.37;100.00
60355;BME280;46198;51.464;-0.066;2023-05-20T09:28:46;102442.28;;;17.45;100.00
60355;BME280;46198;51.464;-0.066;2023-05-20T09:31:16;102442.69;;;17.48;100.00
60355;BME280;46198;51.464;-0.066;2023-05-20T09:33:44;102443.22;;;17.76;100.00
60355;BME280;46198;51.464;-0.066;2023-05-20T09:36:14;102446.88;;;17.69;100.00
60355;BME280;46198;51.464;-0.066;2023-05-20T09:38:43;102438.56;;;17.58;100.00
60355;BME280;46198;51.464;-0.066;2023-05-20T09:41:13;102433.13;;;17.33;100.00
60355;BME280;46198;51.464;-0.066;2023-05-20T09:43:44;102439.94;;;17.67;100.00
60355;BME280;46198;51.464;-0.066;2023-05-20T09:46:13;102421.81;;;17.84;100.00
60355;BME280;46198;51.464;-0.066;2023-05-20T09:48:43;102427.66;;;18.06;100.00
60355;BME280;46198;51.464;-0.066;2023-05-20T09:51:12;102424.09;;;17.87;100.00
60355;BME280;46198;51.464;-0.066;2023-05-20T09:53:42;102419.75;;;18.28;100.00
60355;BME280;46198;51.464;-0.066;2023-05-20T09:56:10;102418.34;;;18.68;100.00
60355;BME280;46198;51.464;-0.066;2023-05-20T09:58:39;102418.16;;;18.51;100.00
60355;BME280;46198;51.464;-0.066;2023-05-20T10:01:10;102405.28;;;18.63;94.20
60355;BME280;46198;51.464;-0.066;2023-05-20T10:03:39;102397.84;;;19.06;100.00
60355;BME280;46198;51.464;-0.066;2023-05-20T10:06:17;102396.88;;;19.12;90.62
60355;BME280;46198;51.464;-0.066;2023-05-20T10:09:00;102403.47;;;18.99;89.94
60355;BME280;46198;51.464;-0.066;2023-05-20T10:11:39;102392.56;;;19.16;83.23
60355;BME280;46198;51.464;-0.066;2023-05-20T10:14:18;102389.31;;;19.42;96.56
60355;BME280;46198;51.464;-0.066;2023-05-20T10:16:54;102386.31;;;19.32;79.96
60355;BME280;46198;51.464;-0.066;2023-05-20T10:19:27;102397.09;;;19.57;71.53
60355;BME280;46198;51.464;-0.066;2023-05-20T10:21:59;102385.97;;;19.40;69.13
60355;BME280;46198;51.464;-0.066;2023-05-20T10:24:31;102378.91;;;19.44;75.67
60355;BME280;46198;51.464;-0.066;2023-05-20T10:27:01;102380.38;;;19.35;70.15
60355;BME280;46198;51.464;-0.066;2023-05-20T10:29:41;102384.66;;;19.43;71.03
60355;BME280;46198;51.464;-0.066;2023-05-20T10:32:22;102386.94;;;19.34;66.59
60355;BME280;46198;51.464;-0.066;2023-05-20T10:34:51;102385.34;;;19.62;69.91
60355;BME280;46198;51.464;-0.066;2023-05-20T10:37:24;102376.94;;;19.80;69.67
60355;BME280;46198;51.464;-0.066;2023-05-20T10:40:04;102387.69;;;19.93;65.99
60355;BME280;46198;51.464;-0.066;2023-05-20T10:42:33;102381.59;;;20.20;67.87
60355;BME280;46198;51.464;-0.066;2023-05-20T10:45:01;102379.06;;;20.19;61.90
60355;BME280;46198;51.464;-0.066;2023-05-20T10:47:31;102375.47;;;19.89;68.85
60355;BME280;46198;51.464;-0.066;2023-05-20T10:50:00;102373.13;;;20.10;62.00
60355;BME280;46198;51.464;-0.066;2023-05-20T10:52:32;102372.81;;;19.95;56.58
60355;BME280;46198;51.464;-0.066;2023-05-20T10:55:01;102376.34;;;19.78;60.18
60355;BME280;46198;51.464;-0.066;2023-05-20T10:57:31;102373.19;;;19.98;63.91
60355;BME280;46198;51.464;-0.066;2023-05-20T11:00:00;102363.03;;;19.87;62.41
60355;BME280;46198;51.464;-0.066;2023-05-20T11:02:28;102361.28;;;19.45;59.03
60355;BME280;46198;51.464;-0.066;2023-05-20T11:04:58;102356.94;;;19.61;58.66
60355;BME280;46198;51.464;-0.066;2023-05-20T11:07:30;102358.69;;;19.91;58.99
60355;BME280;46198;51.464;-0.066;2023-05-20T11:09:59;102349.75;;;19.72;60.99
60355;BME280;46198;51.464;-0.066;2023-05-20T11:12:28;102344.03;;;20.19;60.98
60355;BME280;46198;51.464;-0.066;2023-05-20T11:14:56;102353.84;;;20.44;57.08
60355;BME280;46198;51.464;-0.066;2023-05-20T11:17:24;102346.41;;;20.27;60.69
60355;BME280;46198;51.464;-0.066;2023-05-20T11:19:53;102344.09;;;20.36;56.60
60355;BME280;46198;51.464;-0.066;2023-05-20T11:22:23;102351.44;;;20.02;58.42
60355;BME280;46198;51.464;-0.066;2023-05-20T11:24:52;102339.47;;;20.25;52.38
60355;BME280;46198;51.464;-0.066;2023-05-20T11:27:21;102344.44;;;20.11;57.62
60355;BME280;46198;51.464;-0.066;2023-05-20T11:29:50;102351.09;;;19.58;53.87
60355;BME280;46198;51.464;-0.066;2023-05-20T11:32:19;102342.22;;;19.56;55.18
60355;BME280;46198;51.464;-0.066;2023-05-20T11:34:50;102336.63;;;20.20;54.11
60355;BME280;46198;51.464;-0.066;2023-05-20T11:37:24;102328.31;;;20.99;53.56
60355;BME280;46198;51.464;-0.066;2023-05-20T11:40:02;102328.50;;;21.14;51.08
60355;BME280;46198;51.464;-0.066;2023-05-20T11:42:45;102320.59;;;20.84;51.88
60355;BME280;46198;51.464;-0.066;2023-05-20T11:45:46;102318.91;;;20.32;53.19
60355;BME280;46198;51.464;-0.066;2023-05-20T11:48:19;102323.50;;;20.44;56.30
60355;BME280;46198;51.464;-0.066;2023-05-20T11:50:48;102315.53;;;20.59;53.36
60355;BME280;46198;51.464;-0.066;2023-05-20T11:53:20;102318.13;;;20.66;53.31
60355;BME280;46198;51.464;-0.066;2023-05-20T11:55:50;102316.03;;;20.56;52.04
60355;BME280;46198;51.464;-0.066;2023-05-20T11:58:20;102307.81;;;21.17;54.60
60355;BME280;46198;51.464;-0.066;2023-05-20T12:00:49;102299.72;;;21.49;46.73
60355;BME280;46198;51.464;-0.066;2023-05-20T12:03:31;102308.94;;;20.77;48.17
60355;BME280;46198;51.464;-0.066;2023-05-20T12:06:00;102284.84;;;21.33;50.18
60355;BME280;46198;51.464;-0.066;2023-05-20T12:08:30;102297.75;;;21.28;50.54
60355;BME280;46198;51.464;-0.066;2023-05-20T12:10:58;102298.38;;;21.52;49.46
60355;BME280;46198;51.464;-0.066;2023-05-20T12:13:27;102299.03;;;22.13;48.78
60355;BME280;46198;51.464;-0.066;2023-05-20T12:15:55;102288.91;;;21.97;45.88
60355;BME280;46198;51.464;-0.066;2023-05-20T12:18:23;102277.28;;;21.67;45.47
60355;BME280;46198;51.464;-0.066;2023-05-20T12:20:51;102295.03;;;21.11;46.76
60355;BME280;46198;51.464;-0.066;2023-05-20T12:23:20;102281.00;;;21.34;51.85
60355;BME280;46198;51.464;-0.066;2023-05-20T12:25:50;102279.16;;;21.89;47.64
60355;BME280;46198;51.464;-0.066;2023-05-20T12:28:23;102271.06;;;22.09;48.76
60355;BME280;46198;51.464;-0.066;2023-05-20T12:30:52;102272.53;;;22.49;42.39
60355;BME280;46198;51.464;-0.066;2023-05-20T12:33:20;102269.91;;;22.05;48.49
60355;BME280;46198;51.464;-0.066;2023-05-20T12:35:49;102267.94;;;21.30;46.04
60355;BME280;46198;51.464;-0.066;2023-05-20T12:38:17;102275.66;;;21.28;41.97
60355;BME280;46198;51.464;-0.066;2023-05-20T12:40:46;102273.03;;;21.87;42.96
60355;BME280;46198;51.464;-0.066;2023-05-20T12:43:16;102272.63;;;21.73;47.10
60355;BME280;46198;51.464;-0.066;2023-05-20T12:45:44;102271.88;;;20.56;45.56
60355;BME280;46198;51.464;-0.066;2023-05-20T12:48:12;102283.59;;;20.63;46.19
60355;BME280;46198;51.464;-0.066;2023-05-20T12:50:41;102277.06;;;20.69;46.45